Terminal Aerodrome Forecast
Issued by NWS Albuquerque, NM

Home | Current Version | Previous Version | Text Only | Print | Product List | Glossary On
Versions: 1 2 3 4 5 6 7 8 9 10 11 12 13 14 15
000
FTUS45 KABQ 292336
TAFABQ
TAF
KABQ 292336Z 3000/3024 VRB05KT P6SM VCSH SCT060 BKN100
     FM300100 08010KT P6SM VCTS BKN060CB
      TEMPO 3001/3003 VRB15G25KT -TSRA BKN050CB
     FM300400 08013G23KT P6SM BKN070
     FM301100 08010KT P6SM BKN050
     FM301700 16010KT P6SM SCT060 BKN090
     FM302100 17010KT P6SM VCTS SCT060CB BKN090=

USA.gov is the U.S. government's official web portal to all federal, state and local government web resources and services.